createdAt,value
2018-10-01T00:01:10.659Z,10.63
2018-10-01T00:03:39.067Z,10.68
2018-10-01T00:06:07.511Z,10.61
2018-10-01T00:08:35.808Z,10.56
2018-10-01T00:11:04.531Z,10.53
2018-10-01T00:13:32.962Z,10.62
2018-10-01T00:16:01.347Z,10.69
2018-10-01T00:18:29.568Z,10.90
2018-10-01T00:21:03.132Z,11.03
2018-10-01T00:23:31.311Z,11.39
2018-10-01T00:25:59.479Z,11.48
2018-10-01T00:28:27.716Z,11.52
2018-10-01T00:30:55.931Z,11.58
2018-10-01T00:33:24.240Z,11.45
2018-10-01T00:35:52.375Z,11.48
2018-10-01T00:38:20.574Z,11.55
2018-10-01T00:40:48.759Z,11.57
2018-10-01T00:43:16.952Z,11.62
2018-10-01T00:45:45.152Z,11.63
2018-10-01T00:48:13.304Z,11.66
2018-10-01T00:50:41.492Z,11.72
2018-10-01T00:53:09.737Z,11.66
2018-10-01T00:55:37.893Z,11.64
2018-10-01T00:58:06.271Z,11.45
2018-10-01T01:00:34.595Z,11.47
2018-10-01T01:03:02.852Z,11.45
2018-10-01T01:05:31.091Z,11.28
2018-10-01T01:07:59.839Z,11.17
2018-10-01T01:10:28.046Z,11.27
2018-10-01T01:12:56.252Z,11.29
2018-10-01T01:15:24.420Z,11.34
2018-10-01T01:17:52.576Z,11.38
2018-10-01T01:20:21.665Z,11.37
2018-10-01T01:22:49.863Z,11.18
2018-10-01T01:25:18.092Z,11.15
2018-10-01T01:27:46.279Z,11.07
2018-10-01T01:30:14.483Z,11.01
2018-10-01T01:32:42.704Z,11.05
2018-10-01T01:35:10.936Z,10.94
2018-10-01T01:37:39.127Z,10.87
2018-10-01T01:40:07.449Z,10.88
2018-10-01T01:42:35.711Z,10.98
2018-10-01T01:45:04.409Z,10.89
2018-10-01T01:47:32.596Z,10.86
2018-10-01T01:50:00.753Z,10.83
2018-10-01T01:52:28.959Z,10.91
2018-10-01T01:54:57.150Z,10.70
2018-10-01T01:57:25.452Z,10.60
2018-10-01T01:59:53.603Z,10.43
2018-10-01T02:02:21.775Z,10.51
2018-10-01T02:04:50.012Z,10.71
2018-10-01T02:07:18.307Z,10.61
2018-10-01T02:09:46.568Z,10.58
2018-10-01T02:12:14.700Z,10.69
2018-10-01T02:14:42.949Z,10.85
2018-10-01T02:17:11.597Z,10.87
2018-10-01T02:19:39.834Z,10.78
2018-10-01T02:22:07.978Z,10.85
2018-10-01T02:24:36.123Z,10.96
2018-10-01T02:27:04.303Z,10.98
2018-10-01T02:29:32.543Z,11.00
2018-10-01T02:32:00.741Z,10.98
2018-10-01T02:34:28.896Z,10.99
2018-10-01T02:36:57.347Z,11.01
2018-10-01T02:39:25.487Z,10.98
2018-10-01T02:41:54.109Z,11.04
2018-10-01T02:44:22.350Z,11.03
2018-10-01T02:46:50.500Z,11.00
2018-10-01T02:49:18.768Z,11.05
2018-10-01T02:51:52.347Z,10.95
2018-10-01T02:54:32.957Z,10.99
2018-10-01T02:57:01.935Z,11.03
2018-10-01T02:59:30.175Z,11.08
2018-10-01T03:01:58.343Z,11.09
2018-10-01T03:04:27.365Z,10.97
2018-10-01T03:06:55.545Z,10.83
2018-10-01T03:09:23.826Z,10.80
2018-10-01T03:11:51.991Z,10.78
2018-10-01T03:14:20.208Z,10.85
2018-10-01T03:16:48.514Z,10.88
2018-10-01T03:19:16.691Z,10.82
2018-10-01T03:21:44.863Z,10.76
2018-10-01T03:24:12.991Z,10.67
2018-10-01T03:26:41.164Z,10.65
2018-10-01T03:29:09.297Z,10.78
2018-10-01T03:31:37.511Z,10.80
2018-10-01T03:34:05.671Z,10.74
2018-10-01T03:36:33.823Z,10.66
2018-10-01T03:39:02.221Z,10.66
2018-10-01T03:41:30.557Z,10.52
2018-10-01T03:43:58.798Z,10.53
2018-10-01T03:46:26.949Z,10.61
2018-10-01T03:48:55.100Z,10.66
2018-10-01T03:51:23.292Z,10.77
2018-10-01T03:53:51.551Z,10.71
2018-10-01T03:56:19.831Z,10.71
2018-10-01T03:58:48.379Z,10.51
2018-10-01T04:01:16.577Z,10.46
2018-10-01T04:03:44.742Z,10.40
2018-10-01T04:06:12.931Z,10.46
2018-10-01T04:08:41.276Z,10.63
2018-10-01T04:11:09.411Z,10.50
2018-10-01T04:13:37.568Z,10.53
2018-10-01T04:16:05.763Z,10.52
2018-10-01T04:18:33.948Z,10.54
2018-10-01T04:21:02.204Z,10.53
2018-10-01T04:23:30.373Z,10.47
2018-10-01T04:25:58.533Z,10.50
2018-10-01T04:28:27.756Z,10.47
2018-10-01T04:30:55.888Z,10.39
2018-10-01T04:33:24.088Z,10.44
2018-10-01T04:35:52.251Z,10.41
2018-10-01T04:38:20.545Z,10.55
2018-10-01T04:40:48.870Z,10.54
2018-10-01T04:43:16.988Z,10.39
2018-10-01T04:45:45.160Z,10.52
2018-10-01T04:48:13.358Z,10.45
2018-10-01T04:50:41.612Z,10.51
2018-10-01T04:53:10.065Z,10.53
2018-10-01T04:55:38.275Z,10.43
2018-10-01T04:58:06.540Z,10.43
2018-10-01T05:00:34.747Z,10.41
2018-10-01T05:03:02.979Z,10.29
2018-10-01T05:05:31.111Z,10.27
2018-10-01T05:07:59.963Z,10.41
2018-10-01T05:10:28.218Z,10.44
2018-10-01T05:12:56.414Z,10.39
2018-10-01T05:15:24.689Z,10.38
2018-10-01T05:17:52.861Z,10.31
2018-10-01T05:20:21.015Z,10.27
2018-10-01T05:22:49.301Z,10.18
2018-10-01T05:25:17.469Z,10.11
2018-10-01T05:27:45.644Z,10.11
2018-10-01T05:30:13.779Z,10.27
2018-10-01T05:32:42.019Z,10.33
2018-10-01T05:35:10.169Z,10.29
2018-10-01T05:37:38.444Z,10.39
2018-10-01T05:40:06.586Z,10.20
2018-10-01T05:42:34.747Z,10.26
2018-10-01T05:45:02.886Z,10.22
2018-10-01T05:47:31.229Z,10.17
2018-10-01T05:49:59.380Z,10.24
2018-10-01T05:52:27.661Z,10.21
2018-10-01T05:54:56.025Z,10.09
2018-10-01T05:57:24.243Z,9.99
2018-10-01T05:59:52.458Z,10.05
2018-10-01T06:02:20.807Z,10.09
2018-10-01T06:04:49.174Z,10.11
2018-10-01T06:07:17.335Z,10.07
2018-10-01T06:09:45.511Z,10.04
2018-10-01T06:12:13.851Z,10.03
2018-10-01T06:14:42.117Z,10.06
2018-10-01T06:17:10.719Z,10.11
2018-10-01T06:19:38.977Z,10.11
2018-10-01T06:22:07.163Z,10.19
2018-10-01T06:24:35.360Z,10.12
2018-10-01T06:27:03.525Z,10.10
2018-10-01T06:29:32.574Z,10.07
2018-10-01T06:32:00.740Z,10.22
2018-10-01T06:34:29.273Z,10.13
2018-10-01T06:36:57.465Z,10.10
2018-10-01T06:39:25.699Z,10.17
2018-10-01T06:41:54.360Z,10.19
2018-10-01T06:44:22.357Z,10.09
2018-10-01T06:46:50.758Z,10.16
2018-10-01T06:49:19.042Z,10.29
2018-10-01T06:51:47.645Z,10.46
2018-10-01T06:54:16.540Z,10.49
2018-10-01T06:56:44.692Z,10.44
2018-10-01T06:59:12.863Z,10.54
2018-10-01T07:01:41.097Z,10.70
2018-10-01T07:04:09.271Z,10.71
2018-10-01T07:06:37.467Z,10.76
2018-10-01T07:09:07.711Z,10.87
2018-10-01T07:11:36.117Z,10.74
2018-10-01T07:14:04.116Z,10.67
2018-10-01T07:16:32.476Z,10.72
2018-10-01T07:19:00.536Z,10.85
2018-10-01T07:21:28.737Z,10.88
2018-10-01T07:23:57.020Z,10.93
2018-10-01T07:26:25.243Z,10.93
2018-10-01T07:28:53.383Z,10.94
2018-10-01T07:31:21.700Z,10.99
2018-10-01T07:33:49.861Z,10.99
2018-10-01T07:36:18.004Z,10.96
2018-10-01T07:38:46.189Z,11.00
2018-10-01T07:41:14.429Z,11.15
2018-10-01T07:43:42.746Z,11.09
2018-10-01T07:46:11.209Z,11.14
2018-10-01T07:48:39.445Z,11.12
2018-10-01T07:51:07.868Z,11.08
2018-10-01T07:53:35.996Z,11.18
2018-10-01T07:56:04.056Z,11.04
2018-10-01T07:58:32.225Z,11.03
2018-10-01T08:01:00.524Z,11.09
2018-10-01T08:03:28.924Z,10.97
2018-10-01T08:05:57.263Z,11.06
2018-10-01T08:08:25.565Z,11.18
2018-10-01T08:10:53.791Z,11.17
2018-10-01T08:13:21.947Z,11.07
2018-10-01T08:15:50.585Z,10.87
2018-10-01T08:18:18.751Z,10.99
2018-10-01T08:20:47.060Z,11.00
2018-10-01T08:23:15.429Z,11.09
2018-10-01T08:25:43.720Z,10.99
2018-10-01T08:28:11.890Z,10.96
2018-10-01T08:30:40.075Z,10.97
2018-10-01T08:33:08.256Z,11.04
2018-10-01T08:35:36.419Z,10.98
2018-10-01T08:38:04.648Z,11.14
2018-10-01T08:40:32.740Z,10.97
2018-10-01T08:43:01.028Z,11.06
2018-10-01T08:45:29.204Z,11.17
2018-10-01T08:47:57.411Z,11.15
2018-10-01T08:50:33.965Z,11.08
2018-10-01T08:53:13.391Z,11.16
2018-10-01T08:55:41.552Z,11.20
2018-10-01T08:58:09.695Z,11.25
2018-10-01T09:00:38.863Z,11.29
2018-10-01T09:03:06.994Z,11.43
2018-10-01T09:05:35.264Z,11.54
2018-10-01T09:08:03.371Z,11.49
2018-10-01T09:10:31.604Z,11.58
2018-10-01T09:12:59.805Z,11.70
2018-10-01T09:15:28.002Z,11.71
2018-10-01T09:17:56.150Z,11.73
2018-10-01T09:20:24.460Z,11.67
2018-10-01T09:22:52.581Z,11.78
2018-10-01T09:25:20.759Z,12.02
2018-10-01T09:27:48.935Z,11.84
2018-10-01T09:30:17.110Z,12.10
2018-10-01T09:32:45.267Z,11.90
2018-10-01T09:35:13.484Z,12.02
2018-10-01T09:37:41.583Z,12.35
2018-10-01T09:40:10.708Z,12.38
2018-10-01T09:42:38.913Z,12.54
2018-10-01T09:45:07.139Z,12.43
2018-10-01T09:47:35.370Z,12.22
2018-10-01T09:50:03.507Z,12.34
2018-10-01T09:52:31.759Z,12.36
2018-10-01T09:55:00.239Z,12.57
2018-10-01T09:57:28.524Z,12.69
2018-10-01T09:59:56.660Z,12.60
2018-10-01T10:02:24.895Z,12.57
2018-10-01T10:04:53.189Z,12.61
2018-10-01T10:07:21.378Z,12.71
2018-10-01T10:09:49.659Z,12.67
2018-10-01T10:12:17.839Z,12.60
2018-10-01T10:14:46.003Z,12.78
2018-10-01T10:17:14.144Z,12.99
2018-10-01T10:19:42.344Z,13.13
2018-10-01T10:22:10.577Z,12.79
2018-10-01T10:24:38.737Z,13.11
2018-10-01T10:27:07.059Z,12.99
2018-10-01T10:29:35.325Z,13.39
2018-10-01T10:32:03.606Z,12.98
2018-10-01T10:34:31.746Z,13.29
2018-10-01T10:36:59.952Z,13.17
2018-10-01T10:39:28.650Z,13.24
2018-10-01T10:41:56.999Z,13.41
2018-10-01T10:44:25.104Z,13.67
2018-10-01T10:46:53.388Z,13.63
2018-10-01T10:49:21.639Z,13.72
2018-10-01T10:51:49.846Z,13.56
2018-10-01T10:54:18.016Z,13.69
2018-10-01T10:56:46.269Z,13.60
2018-10-01T10:59:14.500Z,13.59
2018-10-01T11:01:42.753Z,13.72
2018-10-01T11:04:11.089Z,13.60
2018-10-01T11:06:39.432Z,13.52
2018-10-01T11:09:09.032Z,13.35
2018-10-01T11:11:37.511Z,13.52
2018-10-01T11:14:05.980Z,13.61
2018-10-01T11:16:34.001Z,13.81
2018-10-01T11:19:02.335Z,13.99
2018-10-01T11:21:30.551Z,13.80
2018-10-01T11:23:58.712Z,13.71
2018-10-01T11:26:26.936Z,13.50
2018-10-01T11:28:55.227Z,13.45
2018-10-01T11:31:23.483Z,13.55
2018-10-01T11:33:51.770Z,13.61
2018-10-01T11:36:19.899Z,14.07
2018-10-01T11:38:48.403Z,14.23
2018-10-01T11:41:16.734Z,14.20
2018-10-01T11:43:45.826Z,14.02
2018-10-01T11:46:13.999Z,13.76
2018-10-01T11:48:42.228Z,13.71
2018-10-01T11:51:10.581Z,13.55
2018-10-01T11:53:38.598Z,13.65
2018-10-01T11:56:06.872Z,13.66
2018-10-01T11:58:35.031Z,13.57
2018-10-01T12:01:03.176Z,13.92
2018-10-01T12:03:31.560Z,13.91
2018-10-01T12:05:59.737Z,13.90
2018-10-01T12:08:27.881Z,13.85
2018-10-01T12:10:56.169Z,13.90
2018-10-01T12:13:24.697Z,13.99
2018-10-01T12:15:53.042Z,14.08
2018-10-01T12:18:21.160Z,13.96
2018-10-01T12:20:49.354Z,13.85
2018-10-01T12:23:17.638Z,13.84
2018-10-01T12:25:47.159Z,13.94
2018-10-01T12:28:15.399Z,13.81
2018-10-01T12:30:43.688Z,13.89
2018-10-01T12:33:11.944Z,14.29
2018-10-01T12:35:40.160Z,14.61
2018-10-01T12:38:08.517Z,14.80
2018-10-01T12:40:36.789Z,14.59
2018-10-01T12:43:04.933Z,14.81
2018-10-01T12:45:33.162Z,14.46
2018-10-01T12:48:01.268Z,14.66
2018-10-01T12:50:29.520Z,14.27
2018-10-01T12:52:57.683Z,14.55
2018-10-01T12:55:25.850Z,15.22
2018-10-01T12:57:54.046Z,15.31
2018-10-01T13:00:22.373Z,15.42
2018-10-01T13:02:50.515Z,15.03
2018-10-01T13:05:18.711Z,14.73
2018-10-01T13:08:09.607Z,13.50
2018-10-01T13:10:37.761Z,12.83
2018-10-01T13:13:06.472Z,12.69
2018-10-01T13:15:34.612Z,12.03
2018-10-01T13:18:02.778Z,11.51
2018-10-01T13:20:30.908Z,11.49
2018-10-01T13:22:59.051Z,11.53
2018-10-01T13:25:27.199Z,11.67
2018-10-01T13:27:55.432Z,11.85
2018-10-01T13:30:23.618Z,11.95
2018-10-01T13:32:51.796Z,12.11
2018-10-01T13:35:19.968Z,12.28
2018-10-01T13:37:48.912Z,12.18
2018-10-01T13:40:17.004Z,12.13
2018-10-01T13:42:45.258Z,12.35
2018-10-01T13:45:13.372Z,12.52
2018-10-01T13:47:41.806Z,12.84
2018-10-01T13:50:10.069Z,13.22
2018-10-01T13:52:38.343Z,13.40
2018-10-01T13:55:06.532Z,13.43
2018-10-01T13:57:34.683Z,13.42
2018-10-01T14:00:02.929Z,13.72
2018-10-01T14:02:31.170Z,13.80
2018-10-01T14:04:59.336Z,13.96
2018-10-01T14:07:27.835Z,14.11
2018-10-01T14:09:56.071Z,14.23
2018-10-01T14:12:24.219Z,14.64
2018-10-01T14:14:52.614Z,14.51
2018-10-01T14:17:21.031Z,14.86
2018-10-01T14:19:50.381Z,14.90
2018-10-01T14:22:18.684Z,14.96
2018-10-01T14:24:47.094Z,14.90
2018-10-01T14:27:15.396Z,14.83
2018-10-01T14:29:43.532Z,14.75
2018-10-01T14:32:12.000Z,15.00
2018-10-01T14:34:40.405Z,14.78
2018-10-01T14:37:08.878Z,14.66
2018-10-01T14:39:37.255Z,14.73
2018-10-01T14:42:05.572Z,14.35
2018-10-01T14:44:33.769Z,14.03
2018-10-01T14:47:02.026Z,13.55
2018-10-01T14:49:30.387Z,13.66
2018-10-01T14:51:58.543Z,13.72
2018-10-01T14:54:26.780Z,13.81
2018-10-01T14:56:54.914Z,13.76
2018-10-01T14:59:23.236Z,13.80
2018-10-01T15:01:51.443Z,14.07
2018-10-01T15:04:19.617Z,14.13
2018-10-01T15:06:47.844Z,14.22
2018-10-01T15:09:16.095Z,14.27
2018-10-01T15:11:44.261Z,14.28
2018-10-01T15:14:12.417Z,13.68
2018-10-01T15:16:40.552Z,13.26
2018-10-01T15:19:08.716Z,13.00
2018-10-01T15:21:36.867Z,12.93
2018-10-01T15:24:05.039Z,12.97
2018-10-01T15:26:33.203Z,12.75
2018-10-01T15:29:01.336Z,12.63
2018-10-01T15:31:29.943Z,12.53
2018-10-01T15:33:58.247Z,12.49
2018-10-01T15:36:26.443Z,12.57
2018-10-01T15:38:54.711Z,12.49
2018-10-01T15:41:22.924Z,12.56
2018-10-01T15:43:51.056Z,12.61
2018-10-01T15:46:19.389Z,12.42
2018-10-01T15:48:47.576Z,12.43
2018-10-01T15:51:15.751Z,12.38
2018-10-01T15:53:43.899Z,12.34
2018-10-01T15:56:12.241Z,12.26
2018-10-01T15:58:40.468Z,12.02
2018-10-01T16:01:08.639Z,12.25
2018-10-01T16:03:36.804Z,12.29
2018-10-01T16:06:05.091Z,12.42
2018-10-01T16:08:33.268Z,12.52
2018-10-01T16:11:01.611Z,12.61
2018-10-01T16:13:29.751Z,12.42
2018-10-01T16:15:57.924Z,12.50
2018-10-01T16:18:26.208Z,12.71
2018-10-01T16:20:54.480Z,12.80
2018-10-01T16:25:57.247Z,12.84
2018-10-01T16:28:25.767Z,12.78
2018-10-01T16:30:54.125Z,12.63
2018-10-01T16:33:22.306Z,12.69
2018-10-01T16:35:50.452Z,12.57
2018-10-01T16:38:18.604Z,12.34
2018-10-01T16:40:46.884Z,12.12
2018-10-01T16:43:15.017Z,12.39
2018-10-01T16:48:16.686Z,12.14
2018-10-01T16:50:44.942Z,12.12
2018-10-01T16:53:13.228Z,12.06
2018-10-01T16:55:41.484Z,12.17
2018-10-01T16:58:09.720Z,12.17
2018-10-01T17:00:37.871Z,12.35
2018-10-01T17:03:06.021Z,12.31
2018-10-01T17:05:34.421Z,11.83
2018-10-01T17:08:02.761Z,11.58
2018-10-01T17:10:31.103Z,11.57
2018-10-01T17:12:59.308Z,11.46
2018-10-01T17:15:27.590Z,11.40
2018-10-01T17:17:55.976Z,11.25
2018-10-01T17:20:24.184Z,11.10
2018-10-01T17:22:52.522Z,10.92
2018-10-01T17:25:20.742Z,10.87
2018-10-01T17:27:48.980Z,10.95
2018-10-01T17:30:17.267Z,10.94
2018-10-01T17:32:45.421Z,10.86
2018-10-01T17:35:13.575Z,10.82
2018-10-01T17:37:41.874Z,10.89
2018-10-01T17:40:10.048Z,10.85
2018-10-01T17:42:38.505Z,10.78
2018-10-01T17:45:07.061Z,10.82
2018-10-01T17:47:35.301Z,10.97
2018-10-01T17:50:03.760Z,11.35
2018-10-01T17:52:31.987Z,11.43
2018-10-01T17:55:00.179Z,11.36
2018-10-01T17:57:28.744Z,11.26
2018-10-01T17:59:56.960Z,11.25
2018-10-01T18:02:25.053Z,11.18
2018-10-01T18:04:53.488Z,11.19
2018-10-01T18:07:21.645Z,11.14
2018-10-01T18:09:49.835Z,11.11
2018-10-01T18:12:18.084Z,11.03
2018-10-01T18:14:46.558Z,11.03
2018-10-01T18:17:14.730Z,10.97
2018-10-01T18:19:43.148Z,10.95
2018-10-01T18:22:11.454Z,10.91
2018-10-01T18:24:39.604Z,10.87
2018-10-01T18:27:07.748Z,10.79
2018-10-01T18:29:35.907Z,10.82
2018-10-01T18:32:04.112Z,10.73
2018-10-01T18:34:32.275Z,10.69
2018-10-01T18:37:00.531Z,10.63
2018-10-01T18:39:30.196Z,10.56
2018-10-01T18:41:58.412Z,10.51
2018-10-01T18:44:26.551Z,10.44
2018-10-01T18:46:54.704Z,10.39
2018-10-01T18:49:22.874Z,10.31
2018-10-01T18:51:51.056Z,10.23
2018-10-01T18:54:19.282Z,10.20
2018-10-01T18:56:47.543Z,10.14
2018-10-01T18:59:15.753Z,10.15
2018-10-01T19:01:43.960Z,10.21
2018-10-01T19:04:12.113Z,10.22
2018-10-01T19:06:40.315Z,10.20
2018-10-01T19:09:09.757Z,10.19
2018-10-01T19:11:38.231Z,10.11
2018-10-01T19:14:06.636Z,10.12
2018-10-01T19:16:34.897Z,10.23
2018-10-01T19:19:03.118Z,10.28
2018-10-01T19:21:31.276Z,10.28
2018-10-01T19:23:59.773Z,10.46
2018-10-01T19:26:28.306Z,10.37
2018-10-01T19:28:56.656Z,10.38
2018-10-01T19:31:24.884Z,10.23
2018-10-01T19:33:53.531Z,10.10
2018-10-01T19:36:21.784Z,10.13
2018-10-01T19:38:49.996Z,10.15
2018-10-01T19:41:18.223Z,10.17
2018-10-01T19:43:46.307Z,10.21
2018-10-01T19:46:14.616Z,10.19
2018-10-01T19:48:42.763Z,10.15
2018-10-01T19:51:11.178Z,10.20
2018-10-01T19:53:39.374Z,10.35
2018-10-01T19:56:07.832Z,10.39
2018-10-01T19:58:36.489Z,10.18
2018-10-01T20:01:04.865Z,10.37
2018-10-01T20:03:33.054Z,10.41
2018-10-01T20:06:01.347Z,10.43
2018-10-01T20:08:29.659Z,10.55
2018-10-01T20:10:57.895Z,10.52
2018-10-01T20:13:26.055Z,10.45
2018-10-01T20:15:54.339Z,10.31
2018-10-01T20:18:22.486Z,10.04
2018-10-01T20:20:50.707Z,10.01
2018-10-01T20:23:18.959Z,9.98
2018-10-01T20:25:47.260Z,9.95
2018-10-01T20:28:15.621Z,9.98
2018-10-01T20:30:43.611Z,9.78
2018-10-01T20:33:11.745Z,9.88
2018-10-01T20:35:40.174Z,9.83
2018-10-01T20:38:08.280Z,9.68
2018-10-01T20:40:36.468Z,9.64
2018-10-01T20:43:04.616Z,9.74
2018-10-01T20:45:32.777Z,9.75
2018-10-01T20:48:01.116Z,9.69
2018-10-01T20:50:29.426Z,9.71
2018-10-01T20:52:57.631Z,9.69
2018-10-01T20:55:25.832Z,9.74
2018-10-01T20:57:54.055Z,9.76
2018-10-01T21:00:22.288Z,9.87
2018-10-01T21:02:50.442Z,9.92
2018-10-01T21:05:18.692Z,9.91
2018-10-01T21:07:46.929Z,9.75
2018-10-01T21:10:15.324Z,9.70
2018-10-01T21:12:43.458Z,9.75
2018-10-01T21:15:11.723Z,9.68
2018-10-01T21:17:39.924Z,9.80
2018-10-01T21:20:08.092Z,9.66
2018-10-01T21:22:36.376Z,9.65
2018-10-01T21:25:05.152Z,9.66
2018-10-01T21:27:34.425Z,9.74
2018-10-01T21:30:02.757Z,9.60
2018-10-01T21:32:30.908Z,9.55
2018-10-01T21:34:59.103Z,9.47
2018-10-01T21:37:27.253Z,9.54
2018-10-01T21:40:05.626Z,9.63
2018-10-01T21:42:33.894Z,9.55
2018-10-01T21:45:02.674Z,9.63
2018-10-01T21:47:31.358Z,9.52
2018-10-01T21:49:59.607Z,9.62
2018-10-01T21:52:28.924Z,9.55
2018-10-01T21:54:57.456Z,9.72
2018-10-01T21:57:25.701Z,9.81
2018-10-01T22:02:37.892Z,9.91
2018-10-01T22:05:06.933Z,9.83
2018-10-01T22:07:36.612Z,9.77
2018-10-01T22:10:05.402Z,9.84
2018-10-01T22:12:33.559Z,9.75
2018-10-01T22:15:01.698Z,9.71
2018-10-01T22:17:29.916Z,9.60
2018-10-01T22:19:58.292Z,9.52
2018-10-01T22:22:26.577Z,9.47
2018-10-01T22:24:54.770Z,9.61
2018-10-01T22:27:22.895Z,9.39
2018-10-01T22:29:51.287Z,9.33
2018-10-01T22:32:19.640Z,9.34
2018-10-01T22:34:48.191Z,9.24
2018-10-01T22:37:16.503Z,9.15
2018-10-01T22:39:44.716Z,9.07
2018-10-01T22:42:12.991Z,9.01
2018-10-01T22:44:41.171Z,8.90
2018-10-01T22:47:09.379Z,8.74
2018-10-01T22:49:37.969Z,8.70
2018-10-01T22:52:06.107Z,8.66
2018-10-01T22:54:34.331Z,8.64
2018-10-01T22:57:02.467Z,8.58
2018-10-01T22:59:30.714Z,8.46
2018-10-01T23:01:58.919Z,8.25
2018-10-01T23:04:27.135Z,8.30
2018-10-01T23:06:55.282Z,8.23
2018-10-01T23:09:23.453Z,8.20
2018-10-01T23:11:51.598Z,8.17
2018-10-01T23:14:19.795Z,8.09
2018-10-01T23:16:48.166Z,7.96
2018-10-01T23:19:16.339Z,7.84
2018-10-01T23:21:44.511Z,7.88
2018-10-01T23:24:12.663Z,7.93
2018-10-01T23:26:40.960Z,8.03
2018-10-01T23:29:09.736Z,8.01
2018-10-01T23:31:37.911Z,7.98
2018-10-01T23:34:06.203Z,8.11
2018-10-01T23:36:34.366Z,8.20
2018-10-01T23:39:03.087Z,8.17
2018-10-01T23:41:31.239Z,8.08
2018-10-01T23:43:59.467Z,8.01
2018-10-01T23:46:27.699Z,8.03
2018-10-01T23:48:55.815Z,8.07
2018-10-01T23:51:24.048Z,8.01
2018-10-01T23:53:52.475Z,7.72
2018-10-01T23:56:20.711Z,7.79
2018-10-01T23:58:49.028Z,7.67
